Time;durP1;ratioP1;P1;durP2;ratioP2;P2;SDS_P1;SDS_P2;PMS_P1;PMS_P2;Temp;Humidity;BMP_temperature;BMP_pressure;BME280_temperature;BME280_humidity;BME280_pressure;Samples;Min_cycle;Max_cycle;Signal;HPM_P1;HPM_P2
2020/12/16 00:01:38;;;;;;;4.38;2.50;;;15.40;64.30;;;;;;4973704;28;20065;-60
2020/12/16 00:04:04;;;;;;;3.72;2.70;;;15.40;64.20;;;;;;4973406;28;20018;-60
2020/12/16 00:06:36;;;;;;;5.18;2.75;;;15.30;64.20;;;;;;4973561;28;20373;-60
2020/12/16 00:09:15;;;;;;;3.88;2.53;;;15.30;64.20;;;;;;4974024;28;20320;-60
2020/12/16 00:11:41;;;;;;;3.50;2.20;;;15.30;64.20;;;;;;4973387;28;20039;-61
2020/12/16 00:14:06;;;;;;;3.17;2.40;;;15.30;64.30;;;;;;4973600;28;20015;-61
2020/12/16 00:16:32;;;;;;;3.33;2.30;;;15.30;64.30;;;;;;4973558;28;20250;-61
2020/12/16 00:18:59;;;;;;;3.05;2.28;;;15.30;65.00;;;;;;4973497;28;20079;-61
2020/12/16 00:21:24;;;;;;;3.40;2.15;;;15.30;64.30;;;;;;4973828;28;20035;-61
2020/12/16 00:23:50;;;;;;;3.58;2.58;;;15.30;64.30;;;;;;4976904;28;20025;-61
2020/12/16 00:26:16;;;;;;;4.28;2.58;;;15.30;64.30;;;;;;4977065;28;20019;-60
2020/12/16 00:28:42;;;;;;;4.00;2.38;;;15.30;64.30;;;;;;4977132;28;20034;-60
2020/12/16 00:31:08;;;;;;;3.63;2.60;;;15.20;64.20;;;;;;4976941;28;20057;-60
2020/12/16 00:33:35;;;;;;;3.40;2.55;;;15.20;64.30;;;;;;4976969;28;20465;-60
2020/12/16 00:36:00;;;;;;;4.18;2.65;;;15.20;64.20;;;;;;4976900;28;20031;-60
2020/12/16 00:38:26;;;;;;;4.40;2.72;;;15.20;64.30;;;;;;4976854;28;20377;-60
2020/12/16 00:40:52;;;;;;;3.17;2.35;;;15.20;64.30;;;;;;4976575;28;20109;-60
2020/12/16 00:43:17;;;;;;;3.55;2.50;;;15.20;64.30;;;;;;4976513;28;20015;-61
2020/12/16 00:45:43;;;;;;;4.40;2.95;;;15.20;64.30;;;;;;4976437;28;20030;-60
2020/12/16 00:48:09;;;;;;;3.97;2.58;;;15.20;64.40;;;;;;4976672;28;20019;-60
2020/12/16 00:50:34;;;;;;;3.95;2.30;;;15.20;64.40;;;;;;4976598;28;20469;-60
2020/12/16 00:53:01;;;;;;;3.20;2.40;;;15.30;64.30;;;;;;4976581;28;20023;-60
2020/12/16 00:55:26;;;;;;;4.28;2.20;;;15.30;64.30;;;;;;4976600;28;20025;-60
2020/12/16 00:57:54;;;;;;;3.65;2.60;;;15.40;64.20;;;;;;4976545;28;20366;-61
2020/12/16 01:00:20;;;;;;;3.28;2.30;;;15.40;64.10;;;;;;4976170;28;20026;-60
2020/12/16 01:02:46;;;;;;;5.07;2.90;;;15.50;63.80;;;;;;4976475;28;20041;-61
2020/12/16 01:05:14;;;;;;;6.03;2.35;;;15.50;63.80;;;;;;4976152;28;20058;-60
2020/12/16 01:07:40;;;;;;;2.47;1.83;;;15.60;63.80;;;;;;4976392;28;20123;-60
2020/12/16 01:10:10;;;;;;;3.97;2.25;;;15.60;63.70;;;;;;4976707;28;20130;-60
2020/12/16 01:12:40;;;;;;;4.03;2.53;;;15.70;63.70;;;;;;4976318;28;20117;-61
2020/12/16 01:15:17;;;;;;;4.82;2.33;;;15.70;63.60;;;;;;4976310;28;20026;-60
2020/12/16 01:17:44;;;;;;;2.45;2.10;;;15.70;63.60;;;;;;4975974;28;20030;-60
2020/12/16 01:20:11;;;;;;;2.63;2.22;;;15.80;63.60;;;;;;4976201;28;20023;-60
2020/12/16 01:22:41;;;;;;;4.40;2.30;;;15.70;63.60;;;;;;4976138;28;20081;-60
2020/12/16 01:25:07;;;;;;;;;;;15.70;63.60;;;;;;4976572;28;20031;-61
2020/12/16 01:27:32;;;;;;;4.40;2.47;;;15.70;63.60;;;;;;4976069;28;20288;-60
2020/12/16 01:29:58;;;;;;;3.53;2.72;;;15.70;63.60;;;;;;4976008;28;20157;-60
2020/12/16 01:32:24;;;;;;;3.00;2.10;;;15.60;63.70;;;;;;4975145;28;20090;-60
2020/12/16 01:34:50;;;;;;;2.75;2.10;;;15.70;63.80;;;;;;4975933;28;20476;-60
2020/12/16 01:37:15;;;;;;;3.15;2.33;;;15.60;63.90;;;;;;4975558;28;20494;-60
2020/12/16 01:39:41;;;;;;;3.83;2.45;;;15.50;63.80;;;;;;4975837;28;20059;-60
2020/12/16 01:42:06;;;;;;;2.88;2.30;;;15.50;63.80;;;;;;4975511;28;20014;-60
2020/12/16 01:44:32;;;;;;;3.33;2.30;;;15.50;63.80;;;;;;4975718;28;20039;-60
2020/12/16 01:47:00;;;;;;;4.13;2.17;;;15.50;63.80;;;;;;4975565;28;20027;-60
2020/12/16 01:49:26;;;;;;;3.17;2.47;;;15.40;63.80;;;;;;4975573;28;20062;-60
2020/12/16 01:51:58;;;;;;;4.18;2.40;;;15.40;63.80;;;;;;4975500;28;20054;-61
2020/12/16 01:54:25;;;;;;;3.60;2.33;;;15.50;63.90;;;;;;4975392;28;20039;-60
2020/12/16 01:56:54;;;;;;;2.80;2.03;;;15.40;63.90;;;;;;4975515;28;20073;-60
2020/12/16 01:59:20;;;;;;;2.60;2.40;;;15.40;63.90;;;;;;4975160;28;20493;-60
2020/12/16 02:01:50;;;;;;;2.60;2.20;;;15.40;63.90;;;;;;4975118;28;20042;-61
2020/12/16 02:04:19;;;;;;;3.47;2.33;;;15.40;63.80;;;;;;4975387;28;20046;-60
2020/12/16 02:06:45;;;;;;;3.97;2.35;;;15.40;64.00;;;;;;4975325;28;20026;-61
2020/12/16 02:09:12;;;;;;;3.80;2.10;;;15.40;64.00;;;;;;4975649;28;20066;-61
2020/12/16 02:11:39;;;;;;;2.47;2.28;;;15.40;64.00;;;;;;4975102;28;20374;-60
2020/12/16 02:14:09;;;;;;;3.50;2.40;;;15.40;63.90;;;;;;4975169;28;20389;-60
2020/12/16 02:16:37;;;;;;;2.10;1.80;;;15.30;63.80;;;;;;4974812;28;20109;-60
2020/12/16 02:19:07;;;;;;;3.28;2.15;;;15.40;63.90;;;;;;4975096;28;20027;-60
2020/12/16 02:21:36;;;;;;;;;;;15.40;63.90;;;;;;4975419;28;20478;-61
2020/12/16 02:24:07;;;;;;;2.00;1.80;;;15.40;63.80;;;;;;4975075;28;19906;-60
2020/12/16 02:26:34;;;;;;;3.05;2.30;;;15.40;63.90;;;;;;4974879;28;20035;-60
2020/12/16 02:29:00;;;;;;;4.28;2.13;;;15.40;63.90;;;;;;4974898;28;20078;-60
2020/12/16 02:31:29;;;;;;;3.08;1.98;;;15.40;63.80;;;;;;4974488;28;20035;-60
2020/12/16 02:33:56;;;;;;;3.50;2.20;;;15.40;63.90;;;;;;4974544;28;20544;-60
2020/12/16 02:36:22;;;;;;;3.15;1.80;;;15.40;63.80;;;;;;4974811;28;20051;-61
2020/12/16 02:38:49;;;;;;;2.30;1.98;;;15.40;63.80;;;;;;4974456;28;20054;-60
2020/12/16 02:41:15;;;;;;;5.20;2.50;;;15.40;63.70;;;;;;4974685;28;20023;-60
2020/12/16 02:43:40;;;;;;;4.13;2.40;;;15.40;63.70;;;;;;4974353;28;20014;-61
2020/12/16 02:46:06;;;;;;;1.98;1.80;;;15.40;63.60;;;;;;4974119;28;20030;-61
2020/12/16 02:48:31;;;;;;;2.08;1.83;;;15.20;63.50;;;;;;4974558;28;20578;-60
2020/12/16 02:50:57;;;;;;;3.10;1.85;;;15.40;64.20;;;;;;4974414;28;20031;-61
2020/12/16 02:53:22;;;;;;;3.35;2.13;;;15.50;63.60;;;;;;4956837;28;20037;-60
2020/12/16 02:55:48;;;;;;;2.67;2.25;;;15.40;63.60;;;;;;4974403;28;20373;-60
2020/12/16 02:58:14;;;;;;;3.85;2.40;;;15.50;63.70;;;;;;4974138;28;20507;-61
2020/12/16 03:00:39;;;;;;;2.88;2.20;;;15.50;63.60;;;;;;4974336;28;20019;-60
2020/12/16 03:03:05;;;;;;;2.40;2.20;;;15.50;63.60;;;;;;4974016;28;20496;-61
2020/12/16 03:05:31;;;;;;;2.05;1.80;;;15.40;63.50;;;;;;4974039;28;20034;-61
2020/12/16 03:07:56;;;;;;;3.15;2.50;;;15.40;63.40;;;;;;4974217;28;20027;-60
2020/12/16 03:10:22;;;;;;;2.38;1.83;;;15.50;63.40;;;;;;4974658;28;20058;-61
2020/12/16 03:12:47;;;;;;;2.15;1.95;;;15.50;63.40;;;;;;4974095;28;20026;-60
2020/12/16 03:15:13;;;;;;;3.10;1.90;;;15.50;63.40;;;;;;4974156;28;20031;-60
2020/12/16 03:17:38;;;;;;;3.05;1.88;;;15.50;63.40;;;;;;4974161;28;20019;-61
2020/12/16 03:20:04;;;;;;;3.28;2.28;;;15.50;63.30;;;;;;4974157;28;20068;-61
2020/12/16 03:22:30;;;;;;;2.35;1.95;;;15.50;63.30;;;;;;4973693;28;20355;-65
2020/12/16 03:24:56;;;;;;;3.20;2.30;;;15.50;63.30;;;;;;4973722;28;20030;-62
2020/12/16 03:27:22;;;;;;;2.15;1.92;;;15.50;63.30;;;;;;4973741;28;20034;-60
2020/12/16 03:29:47;;;;;;;2.75;2.28;;;15.50;63.30;;;;;;4974027;28;20027;-60
2020/12/16 03:32:13;;;;;;;3.05;1.98;;;15.50;63.30;;;;;;4974004;28;20035;-60
2020/12/16 03:34:39;;;;;;;2.13;1.92;;;15.50;63.30;;;;;;4973919;28;20536;-60
2020/12/16 03:37:04;;;;;;;2.47;2.00;;;15.50;63.20;;;;;;4973707;28;20037;-60
2020/12/16 03:39:30;;;;;;;3.10;2.30;;;15.50;63.20;;;;;;4973947;28;20476;-60
2020/12/16 03:41:56;;;;;;;3.35;2.10;;;15.50;63.20;;;;;;4973915;28;20041;-60
2020/12/16 03:44:22;;;;;;;2.30;2.10;;;15.50;63.20;;;;;;4973933;28;20019;-60
2020/12/16 03:46:51;;;;;;;2.40;1.92;;;15.50;63.20;;;;;;4973546;28;20027;-61
2020/12/16 03:49:17;;;;;;;2.30;1.83;;;15.50;63.20;;;;;;4973511;28;20548;-60
2020/12/16 03:51:53;;;;;;;2.85;2.20;;;15.50;63.20;;;;;;4973548;28;20202;-60
2020/12/16 03:54:19;;;;;;;3.03;2.10;;;15.50;63.30;;;;;;4973773;28;20077;-61
2020/12/16 03:56:44;;;;;;;2.30;2.10;;;15.50;63.20;;;;;;4976336;28;20113;-61
2020/12/16 03:59:10;;;;;;;2.40;2.10;;;15.50;63.20;;;;;;4977421;28;20019;-61
2020/12/16 04:01:36;;;;;;;3.45;2.55;;;15.50;63.10;;;;;;4977696;28;20079;-61
2020/12/16 04:04:04;;;;;;;2.50;2.30;;;15.60;63.20;;;;;;4977557;28;20018;-61
2020/12/16 04:06:30;;;;;;;3.90;2.30;;;15.50;63.20;;;;;;4977309;28;20066;-61
2020/12/16 04:08:55;;;;;;;2.30;2.05;;;15.50;63.10;;;;;;4978264;28;20128;-61
2020/12/16 04:11:21;;;;;;;2.47;2.15;;;15.50;63.00;;;;;;4977368;28;20186;-60
2020/12/16 04:13:47;;;;;;;2.72;2.10;;;15.50;63.10;;;;;;4977462;28;20392;-61
2020/12/16 04:16:16;;;;;;;2.90;2.10;;;15.50;63.00;;;;;;4977082;28;20114;-61
2020/12/16 04:18:41;;;;;;;3.28;2.13;;;15.50;63.00;;;;;;4977273;28;20090;-61
2020/12/16 04:21:08;;;;;;;1.90;1.80;;;15.50;63.00;;;;;;4977237;28;20467;-61
2020/12/16 04:23:34;;;;;;;2.30;2.10;;;15.50;63.00;;;;;;4976936;28;20053;-61
2020/12/16 04:26:01;;;;;;;2.85;2.00;;;15.40;63.00;;;;;;4977045;28;20026;-60
2020/12/16 04:28:27;;;;;;;2.47;1.90;;;15.50;63.00;;;;;;4976850;28;20110;-61
2020/12/16 04:30:52;;;;;;;3.30;2.03;;;15.50;62.90;;;;;;4977091;28;20134;-61
2020/12/16 04:33:18;;;;;;;2.85;2.30;;;15.50;62.90;;;;;;4977085;28;20516;-61
2020/12/16 04:35:43;;;;;;;2.25;2.03;;;15.50;63.00;;;;;;4976988;28;20369;-61
2020/12/16 04:38:09;;;;;;;2.50;2.15;;;15.50;62.90;;;;;;4976945;28;20042;-61
2020/12/16 04:40:35;;;;;;;2.85;2.10;;;15.50;62.80;;;;;;4976871;28;20050;-61
2020/12/16 04:43:08;;;;;;;2.72;2.50;;;15.50;62.80;;;;;;4976826;28;20082;-61
2020/12/16 04:45:38;;;;;;;2.10;1.90;;;15.50;62.80;;;;;;4976806;28;20057;-61
2020/12/16 04:48:11;;;;;;;1.73;1.63;;;15.60;62.70;;;;;;4976735;28;20034;-61
2020/12/16 04:50:37;;;;;;;2.45;1.95;;;15.60;62.70;;;;;;4976498;28;20078;-61
2020/12/16 04:53:05;;;;;;;2.50;2.30;;;15.40;62.60;;;;;;4976392;28;20031;-61
2020/12/16 04:55:31;;;;;;;2.80;2.13;;;15.50;62.80;;;;;;4976557;28;20015;-61
2020/12/16 04:58:00;;;;;;;2.33;2.13;;;15.50;62.70;;;;;;4976348;28;20477;-61
2020/12/16 05:00:26;;;;;;;1.83;1.70;;;15.50;62.80;;;;;;4976297;28;20031;-61
2020/12/16 05:03:09;;;;;;;2.25;2.00;;;15.50;62.80;;;;;;4976230;28;20027;-61
2020/12/16 05:05:36;;;;;;;2.13;1.95;;;15.50;62.80;;;;;;4976532;28;20065;-61
2020/12/16 05:08:15;;;;;;;1.60;1.50;;;15.50;62.80;;;;;;4975500;28;20026;-61
2020/12/16 05:10:47;;;;;;;2.33;1.98;;;15.50;62.80;;;;;;4976841;28;20047;-61
2020/12/16 05:13:15;;;;;;;1.75;1.60;;;15.50;62.90;;;;;;4958774;28;20543;-61
2020/12/16 05:15:43;;;;;;;2.53;2.13;;;15.50;62.90;;;;;;4976295;28;20106;-61
2020/12/16 05:18:13;;;;;;;2.08;1.88;;;15.50;62.80;;;;;;4976272;28;20031;-61
2020/12/16 05:20:43;;;;;;;2.25;2.05;;;15.40;62.80;;;;;;4976139;28;20098;-61
2020/12/16 05:23:09;;;;;;;2.28;2.08;;;15.40;62.90;;;;;;4976189;28;20495;-61
2020/12/16 05:25:36;;;;;;;2.60;2.10;;;15.50;63.00;;;;;;4975918;28;20027;-61
2020/12/16 05:28:03;;;;;;;2.15;1.95;;;15.50;62.90;;;;;;4976166;28;20105;-61
2020/12/16 05:30:30;;;;;;;2.60;1.73;;;15.40;62.80;;;;;;4975920;28;20393;-61
2020/12/16 05:32:59;;;;;;;1.83;1.73;;;15.30;62.80;;;;;;4975728;28;20030;-61
2020/12/16 05:35:28;;;;;;;1.85;1.75;;;15.40;62.90;;;;;;4975951;28;20027;-61
2020/12/16 05:38:05;;;;;;;2.22;1.77;;;15.40;62.90;;;;;;4975936;28;20023;-61
2020/12/16 05:40:32;;;;;;;2.30;1.90;;;15.40;63.00;;;;;;4975761;28;20113;-61
2020/12/16 05:42:58;;;;;;;2.47;2.20;;;15.40;63.00;;;;;;4975840;28;20027;-61
2020/12/16 05:45:27;;;;;;;2.53;2.05;;;15.40;63.20;;;;;;4975725;28;20030;-61
2020/12/16 05:48:06;;;;;;;2.17;1.98;;;15.40;63.20;;;;;;4975358;28;20030;-61
2020/12/16 05:50:40;;;;;;;2.40;2.20;;;15.50;63.10;;;;;;4975543;28;20056;-61
2020/12/16 05:53:15;;;;;;;2.38;1.80;;;15.50;62.90;;;;;;4975570;28;20033;-61
2020/12/16 05:55:41;;;;;;;1.95;1.85;;;15.50;62.90;;;;;;4975283;28;20029;-61
2020/12/16 05:58:15;;;;;;;1.83;1.73;;;15.60;63.00;;;;;;4975442;28;20022;-61
2020/12/16 06:00:45;;;;;;;1.80;1.70;;;15.60;62.80;;;;;;4975370;28;20110;-61
2020/12/16 06:03:19;;;;;;;1.48;1.33;;;15.60;62.70;;;;;;4975489;28;20255;-60
2020/12/16 06:05:47;;;;;;;1.80;1.70;;;15.60;62.70;;;;;;4975386;28;20201;-61
2020/12/16 06:08:12;;;;;;;1.98;1.80;;;15.70;62.60;;;;;;4975008;28;20026;-61
2020/12/16 06:10:42;;;;;;;2.28;1.67;;;15.70;62.50;;;;;;4975653;28;20047;-61
2020/12/16 06:13:12;;;;;;;1.58;1.38;;;15.80;62.50;;;;;;4975147;28;20057;-61
2020/12/16 06:15:48;;;;;;;3.45;1.40;;;15.80;62.50;;;;;;4975196;28;20029;-61
2020/12/16 06:18:18;;;;;;;2.00;1.83;;;15.80;62.90;;;;;;4975071;28;20097;-59
2020/12/16 06:20:43;;;;;;;3.05;1.67;;;15.80;63.10;;;;;;4975091;28;20090;-61
2020/12/16 06:23:34;;;;;;;2.03;1.77;;;15.70;62.90;;;;;;4974730;28;20022;-61
2020/12/16 06:26:01;;;;;;;1.75;1.65;;;15.70;62.80;;;;;;4974709;28;20086;-61
2020/12/16 06:28:27;;;;;;;1.77;1.65;;;15.70;62.80;;;;;;4974735;28;20457;-60
2020/12/16 06:30:57;;;;;;;2.28;2.05;;;15.70;63.00;;;;;;4974827;28;20027;-61
2020/12/16 06:33:33;;;;;;;;;;;15.70;63.00;;;;;;4975367;28;20027;-60
2020/12/16 06:36:03;;;;;;;2.00;1.77;;;15.60;63.10;;;;;;4974741;28;20005;-60
2020/12/16 06:38:28;;;;;;;2.35;1.80;;;15.60;63.20;;;;;;4974404;28;20513;-61
2020/12/16 06:40:56;;;;;;;1.75;1.65;;;15.60;63.40;;;;;;4974655;28;20023;-61
2020/12/16 06:43:31;;;;;;;2.67;1.90;;;15.60;63.50;;;;;;4974598;28;20023;-60
2020/12/16 06:45:57;;;;;;;4.80;2.30;;;15.50;63.40;;;;;;4974168;28;20521;-60
2020/12/16 06:48:41;;;;;;;1.83;1.65;;;15.50;63.50;;;;;;4973910;28;20469;-60
2020/12/16 06:51:21;;;;;;;2.17;1.98;;;15.50;63.70;;;;;;4974156;28;20125;-61
2020/12/16 06:53:48;;;;;;;;;;;15.50;63.70;;;;;;4957215;28;20026;-60
2020/12/16 06:56:19;;;;;;;1.70;1.60;;;15.50;63.80;;;;;;4974707;28;19955;-60
2020/12/16 06:58:46;;;;;;;1.80;1.70;;;15.50;63.80;;;;;;4974252;28;20027;-60
2020/12/16 07:01:16;;;;;;;3.75;1.63;;;15.40;63.80;;;;;;4974261;28;20027;-61
2020/12/16 07:03:42;;;;;;;4.07;1.98;;;15.40;63.90;;;;;;4974134;28;20062;-61
2020/12/16 07:06:32;;;;;;;1.90;1.80;;;15.40;63.90;;;;;;4974157;28;20019;-61
2020/12/16 07:09:20;;;;;;;2.40;2.20;;;15.40;63.90;;;;;;4960991;28;20370;-60
2020/12/16 07:11:53;;;;;;;2.38;1.90;;;15.40;63.80;;;;;;4954694;29;20039;-60
2020/12/16 07:14:35;;;;;;;1.83;1.73;;;15.30;63.80;;;;;;4954567;29;20023;-61
2020/12/16 07:17:08;;;;;;;2.20;1.77;;;15.30;63.80;;;;;;4954471;29;20042;-60
2020/12/16 07:19:34;;;;;;;2.50;2.20;;;15.30;64.00;;;;;;4967521;28;20078;-60
2020/12/16 07:22:15;;;;;;;1.85;1.75;;;15.30;64.00;;;;;;4972378;28;20031;-59
2020/12/16 07:24:52;;;;;;;1.80;1.70;;;15.30;64.00;;;;;;4972887;28;20105;-59
2020/12/16 07:27:24;;;;;;;1.88;1.63;;;15.40;64.00;;;;;;4973025;28;20033;-59
2020/12/16 07:29:59;;;;;;;2.03;1.83;;;15.40;63.90;;;;;;4973850;28;20061;-58
2020/12/16 07:32:26;;;;;;;2.55;1.85;;;15.50;63.70;;;;;;4973436;28;20034;-59
2020/12/16 07:34:56;;;;;;;2.22;2.03;;;15.50;63.70;;;;;;4973911;28;20441;-59
2020/12/16 07:37:27;;;;;;;2.83;1.98;;;15.60;63.50;;;;;;4973851;28;20045;-57
2020/12/16 07:39:58;;;;;;;2.72;1.83;;;15.60;63.30;;;;;;4973904;28;20041;-59
2020/12/16 07:42:29;;;;;;;2.53;2.22;;;15.70;63.10;;;;;;4973655;28;20366;-58
2020/12/16 07:44:55;;;;;;;2.95;2.08;;;15.70;62.90;;;;;;4973727;28;20097;-59
2020/12/16 07:47:21;;;;;;;1.80;1.70;;;15.80;62.80;;;;;;4973828;28;20477;-59
2020/12/16 07:49:47;;;;;;;2.80;1.98;;;15.90;62.70;;;;;;4973708;28;20103;-60
2020/12/16 07:52:13;;;;;;;2.33;1.95;;;15.90;62.70;;;;;;4973362;28;20035;-60
2020/12/16 07:54:38;;;;;;;3.83;2.00;;;15.90;62.80;;;;;;4973832;28;20026;-60
2020/12/16 07:57:04;;;;;;;3.40;2.58;;;15.90;63.00;;;;;;4973583;28;20026;-59
2020/12/16 07:59:33;;;;;;;2.50;2.00;;;15.90;63.20;;;;;;4973836;28;20027;-59
2020/12/16 08:02:12;;;;;;;2.60;2.17;;;15.90;63.50;;;;;;4973721;28;20018;-59
2020/12/16 08:04:40;;;;;;;2.15;1.95;;;15.90;64.50;;;;;;4973814;28;20030;-60
2020/12/16 08:07:19;;;;;;;3.08;2.33;;;15.90;64.90;;;;;;4973502;28;20031;-60
2020/12/16 08:09:57;;;;;;;4.93;2.38;;;15.90;65.80;;;;;;4973879;28;20046;-60
2020/12/16 08:12:24;;;;;;;3.10;2.67;;;15.90;66.20;;;;;;4973605;28;20420;-59
2020/12/16 08:15:02;;;;;;;4.22;2.65;;;15.90;66.80;;;;;;4973661;28;20027;-60
2020/12/16 08:17:28;;;;;;;2.83;2.63;;;15.80;67.20;;;;;;4973446;28;20031;-60
2020/12/16 08:20:07;;;;;;;3.38;2.75;;;15.80;68.50;;;;;;4973393;28;20150;-60
2020/12/16 08:22:35;;;;;;;4.15;3.28;;;15.80;69.20;;;;;;4973333;28;20054;-59
2020/12/16 08:25:11;;;;;;;9.70;3.15;;;15.80;70.60;;;;;;4973498;28;20385;-60
2020/12/16 08:28:06;;;;;;;4.07;3.38;;;15.70;71.10;;;;;;4973540;28;20082;-59
2020/12/16 08:30:32;;;;;;;4.03;3.10;;;15.60;71.40;;;;;;4970575;28;20509;-57
2020/12/16 08:33:09;;;;;;;3.35;3.05;;;15.70;72.30;;;;;;4973551;28;20018;-59
2020/12/16 08:35:48;;;;;;;4.82;3.42;;;15.60;71.50;;;;;;4973329;28;20066;-58
2020/12/16 08:38:23;;;;;;;3.23;2.93;;;15.60;71.70;;;;;;4973409;28;20118;-59
2020/12/16 08:40:49;;;;;;;3.63;3.33;;;15.60;71.60;;;;;;4973350;28;20015;-59
2020/12/16 08:43:28;;;;;;;4.78;2.88;;;15.60;71.90;;;;;;4974545;28;20507;-59
2020/12/16 08:46:08;;;;;;;4.78;3.03;;;15.60;71.80;;;;;;4976608;28;20109;-59
2020/12/16 08:49:07;;;;;;;4.32;3.00;;;15.60;71.80;;;;;;4977062;28;20039;-58
2020/12/16 08:51:44;;;;;;;3.08;2.78;;;15.60;71.90;;;;;;4975752;28;20049;-59
2020/12/16 08:54:24;;;;;;;3.03;2.75;;;15.50;71.70;;;;;;4976342;28;20453;-58
2020/12/16 08:56:52;;;;;;;3.15;2.72;;;15.50;71.70;;;;;;4976675;28;20031;-59
2020/12/16 08:59:21;;;;;;;2.95;2.65;;;15.60;71.80;;;;;;4976460;28;20030;-59
2020/12/16 09:01:49;;;;;;;2.95;2.72;;;15.50;71.60;;;;;;4976453;28;20026;-59
2020/12/16 09:04:34;;;;;;;3.63;3.10;;;15.50;71.40;;;;;;4976248;28;20113;-58
2020/12/16 09:07:03;;;;;;;3.10;2.80;;;15.50;71.20;;;;;;4976513;28;20507;-58
2020/12/16 09:09:29;;;;;;;2.78;2.58;;;15.50;71.30;;;;;;4976834;28;20046;-58
2020/12/16 09:11:55;;;;;;;3.05;2.70;;;15.50;71.00;;;;;;4975900;28;20046;-58
2020/12/16 09:14:21;;;;;;;2.78;2.30;;;15.50;71.00;;;;;;4976002;28;20158;-59
2020/12/16 09:16:47;;;;;;;3.47;2.63;;;15.50;70.80;;;;;;4976230;28;20385;-59
2020/12/16 09:19:24;;;;;;;3.40;2.80;;;15.50;70.90;;;;;;4975990;28;20015;-59
2020/12/16 09:21:50;;;;;;;3.72;2.83;;;15.50;71.10;;;;;;4976234;28;20077;-58
2020/12/16 09:24:23;;;;;;;4.25;3.28;;;15.50;70.50;;;;;;4975976;28;20023;-60
2020/12/16 09:26:50;;;;;;;2.80;2.60;;;15.50;70.40;;;;;;4976143;28;20082;-58
2020/12/16 09:29:20;;;;;;;3.58;2.97;;;15.50;70.40;;;;;;4976046;28;20033;-59
2020/12/16 09:31:48;;;;;;;3.35;3.05;;;15.50;70.40;;;;;;4975699;28;20489;-58
2020/12/16 09:34:14;;;;;;;3.83;2.67;;;15.50;71.20;;;;;;4975826;28;20114;-58
2020/12/16 09:36:39;;;;;;;2.45;2.22;;;15.50;70.60;;;;;;4975614;28;20058;-58
2020/12/16 09:39:06;;;;;;;3.17;2.78;;;15.50;70.40;;;;;;4975640;28;20029;-59
2020/12/16 09:41:49;;;;;;;2.70;2.50;;;15.50;70.60;;;;;;4974048;28;20462;-59
2020/12/16 09:44:30;;;;;;;3.33;2.85;;;15.50;70.50;;;;;;4975903;28;20050;-59
2020/12/16 09:47:18;;;;;;;2.90;2.63;;;15.50;70.60;;;;;;4975684;28;20070;-58
2020/12/16 09:49:46;;;;;;;5.97;2.75;;;15.60;70.80;;;;;;4975924;28;20038;-59
2020/12/16 09:52:33;;;;;;;2.55;2.17;;;15.60;70.60;;;;;;4975459;28;20042;-59
2020/12/16 09:55:20;;;;;;;2.03;1.92;;;15.60;70.70;;;;;;4974880;28;20496;-59
2020/12/16 09:58:03;;;;;;;2.30;2.10;;;15.70;70.70;;;;;;4975576;28;20027;-59
2020/12/16 10:00:30;;;;;;;2.83;2.50;;;15.80;70.60;;;;;;4975417;28;20375;-58
2020/12/16 10:03:09;;;;;;;2.30;2.10;;;15.80;70.50;;;;;;4975531;28;20046;-59
2020/12/16 10:05:36;;;;;;;2.13;1.98;;;15.90;70.20;;;;;;4975499;28;20372;-60
2020/12/16 10:08:05;;;;;;;2.08;1.88;;;16.00;70.10;;;;;;4975326;28;20427;-58
2020/12/16 10:10:31;;;;;;;1.88;1.70;;;16.00;70.00;;;;;;4975811;28;20047;-60
2020/12/16 10:13:04;;;;;;;2.00;1.80;;;16.00;69.80;;;;;;4974879;28;20473;-60
2020/12/16 10:15:30;;;;;;;3.38;2.20;;;16.10;69.70;;;;;;4974866;28;20105;-61
2020/12/16 10:17:55;;;;;;;2.90;2.20;;;16.10;69.40;;;;;;4975276;28;20058;-61
2020/12/16 10:20:21;;;;;;;3.47;2.22;;;16.20;69.50;;;;;;4975161;28;20488;-58
2020/12/16 10:22:47;;;;;;;2.05;1.85;;;16.20;69.40;;;;;;4975135;28;20019;-60
2020/12/16 10:25:13;;;;;;;1.95;1.63;;;16.20;69.30;;;;;;4975026;28;20034;-60
2020/12/16 10:27:39;;;;;;;2.80;1.90;;;16.30;69.50;;;;;;4974998;28;20433;-60
2020/12/16 10:30:06;;;;;;;1.92;1.83;;;16.30;69.50;;;;;;4974925;28;20473;-59
2020/12/16 10:32:34;;;;;;;2.28;2.08;;;16.40;69.40;;;;;;4974841;28;20101;-58
2020/12/16 10:34:59;;;;;;;2.17;1.98;;;16.40;69.40;;;;;;4974824;28;20432;-60
2020/12/16 10:37:25;;;;;;;2.20;2.00;;;16.40;69.30;;;;;;4974953;28;20106;-58
2020/12/16 10:39:52;;;;;;;2.05;1.88;;;16.50;69.40;;;;;;4974868;28;20027;-61
2020/12/16 10:42:18;;;;;;;1.83;1.73;;;16.50;69.20;;;;;;4974382;28;20019;-61
2020/12/16 10:44:44;;;;;;;1.98;1.50;;;16.50;69.20;;;;;;4974640;28;20042;-60
2020/12/16 10:47:10;;;;;;;2.10;1.90;;;16.50;69.10;;;;;;4974541;28;20014;-61
2020/12/16 10:49:36;;;;;;;1.88;1.77;;;16.60;69.10;;;;;;4974752;28;20094;-60
2020/12/16 10:52:13;;;;;;;8.70;2.28;;;16.60;69.00;;;;;;4972456;28;20047;-61
2020/12/16 10:54:39;;;;;;;2.17;1.98;;;16.60;68.60;;;;;;4972642;28;20098;-61
2020/12/16 10:57:05;;;;;;;4.75;2.08;;;16.60;68.60;;;;;;4973517;28;20493;-61
2020/12/16 10:59:31;;;;;;;3.65;2.15;;;16.70;68.60;;;;;;4974202;28;20030;-61
2020/12/16 11:01:59;;;;;;;3.40;1.55;;;16.70;68.60;;;;;;4974159;28;20158;-60
2020/12/16 11:04:29;;;;;;;3.33;1.90;;;16.70;68.50;;;;;;4974374;28;20377;-61
2020/12/16 11:06:55;;;;;;;3.05;1.80;;;16.70;68.40;;;;;;4973419;28;20048;-61
2020/12/16 11:09:21;;;;;;;3.45;1.40;;;16.80;68.10;;;;;;4973964;28;20018;-62
2020/12/16 11:11:48;;;;;;;8.93;1.58;;;16.70;68.20;;;;;;4974275;28;20054;-59
2020/12/16 11:14:15;;;;;;;8.85;1.65;;;16.70;67.90;;;;;;4974209;28;20042;-62
2020/12/16 11:16:41;;;;;;;2.58;1.80;;;16.70;67.90;;;;;;4973441;28;20065;-59
2020/12/16 11:19:08;;;;;;;5.20;2.00;;;16.70;67.70;;;;;;4973806;28;20082;-62
2020/12/16 11:21:39;;;;;;;4.43;1.85;;;16.70;67.60;;;;;;4974063;28;20062;-60
2020/12/16 11:24:06;;;;;;;3.33;1.40;;;16.70;67.60;;;;;;4974057;28;20035;-59
2020/12/16 11:26:39;;;;;;;5.28;1.70;;;16.60;67.40;;;;;;4974039;28;20022;-59
2020/12/16 11:29:06;;;;;;;5.63;1.30;;;16.70;67.20;;;;;;4973624;28;20432;-59
2020/12/16 11:31:32;;;;;;;3.03;1.40;;;16.60;67.20;;;;;;4971986;28;20105;-59
2020/12/16 11:33:58;;;;;;;1.98;1.50;;;16.60;67.20;;;;;;4973835;28;20027;-61
2020/12/16 11:36:23;;;;;;;3.17;1.58;;;16.60;67.20;;;;;;4973591;28;20081;-61
2020/12/16 11:38:49;;;;;;;4.13;1.70;;;16.60;67.10;;;;;;4973851;28;20027;-61
2020/12/16 11:41:14;;;;;;;2.05;1.30;;;16.50;67.10;;;;;;4973559;28;20461;-60
2020/12/16 11:43:40;;;;;;;5.65;1.40;;;16.50;67.00;;;;;;4972466;28;20027;-61
2020/12/16 11:46:05;;;;;;;3.10;1.60;;;16.40;67.50;;;;;;4973520;28;20019;-61
2020/12/16 11:48:31;;;;;;;1.52;1.42;;;16.40;68.30;;;;;;4973826;28;20027;-61
2020/12/16 11:50:57;;;;;;;6.93;1.42;;;16.30;69.20;;;;;;4973357;28;20362;-61
2020/12/16 11:53:22;;;;;;;3.03;1.50;;;16.30;68.40;;;;;;4973795;28;20067;-61
2020/12/16 11:55:48;;;;;;;2.10;1.25;;;16.30;68.70;;;;;;4973886;28;20015;-61
2020/12/16 11:58:14;;;;;;;5.90;1.50;;;16.20;68.90;;;;;;4973521;28;20133;-61
2020/12/16 12:00:40;;;;;;;2.88;1.60;;;16.20;69.40;;;;;;4973433;28;20034;-61
2020/12/16 12:03:05;;;;;;;2.25;1.55;;;16.20;69.70;;;;;;4973729;28;20034;-61
2020/12/16 12:05:31;;;;;;;4.15;1.65;;;16.10;70.60;;;;;;4973698;28;20031;-61
2020/12/16 12:07:56;;;;;;;1.92;1.20;;;16.10;70.50;;;;;;4973592;28;20031;-59
2020/12/16 12:10:22;;;;;;;3.15;1.50;;;16.10;71.20;;;;;;4974063;28;20046;-61
2020/12/16 12:12:47;;;;;;;2.30;1.60;;;16.10;71.00;;;;;;4973528;28;20457;-61
2020/12/16 12:15:13;;;;;;;2.03;1.40;;;16.00;71.30;;;;;;4973895;28;20034;-61
2020/12/16 12:17:39;;;;;;;2.33;1.42;;;16.00;72.30;;;;;;4975520;28;20106;-61
2020/12/16 12:20:05;;;;;;;3.15;1.60;;;16.00;71.70;;;;;;4977141;28;20042;-61
2020/12/16 12:22:30;;;;;;;1.98;1.30;;;15.90;71.60;;;;;;4977045;28;20501;-61
2020/12/16 12:24:56;;;;;;;1.90;1.70;;;15.90;71.90;;;;;;4977001;28;20122;-61
2020/12/16 12:27:29;;;;;;;2.92;1.30;;;15.90;71.70;;;;;;4977103;28;20054;-59
2020/12/16 12:29:55;;;;;;;5.00;1.48;;;15.80;71.70;;;;;;4977101;28;20083;-61
2020/12/16 12:32:21;;;;;;;2.50;1.80;;;15.80;71.80;;;;;;4977065;28;20406;-60
2020/12/16 12:34:46;;;;;;;1.92;1.23;;;15.80;72.10;;;;;;4977069;28;20476;-61
2020/12/16 12:37:12;;;;;;;3.17;1.35;;;15.80;72.60;;;;;;4976709;28;20486;-61
2020/12/16 12:39:37;;;;;;;2.13;1.40;;;15.80;72.00;;;;;;4977035;28;20391;-61
2020/12/16 12:42:03;;;;;;;1.52;1.40;;;15.80;72.10;;;;;;4976902;28;20027;-61
2020/12/16 12:44:28;;;;;;;3.63;1.40;;;15.80;73.30;;;;;;4976841;28;20481;-61
2020/12/16 12:46:54;;;;;;;1.60;1.27;;;15.80;73.20;;;;;;4976805;28;20495;-61
2020/12/16 12:49:19;;;;;;;2.42;1.27;;;15.70;72.40;;;;;;4976750;28;20537;-61
2020/12/16 12:51:49;;;;;;;3.25;1.67;;;15.70;72.60;;;;;;4976492;28;20441;-61
2020/12/16 12:54:16;;;;;;;3.33;1.42;;;15.70;73.10;;;;;;4976776;28;20381;-61
2020/12/16 12:56:41;;;;;;;3.22;1.40;;;15.70;74.00;;;;;;4976583;28;20389;-61